Varna, Bulgaria
Current Conditions -  °F | °C
As of 8:00 PM on Sunday 23 Nov 2014 (Local Time) from LBWN Reporting Station
Scattered Clouds Scattered Clouds  
Wind Chill: 33°   Ceiling: Unl
Heat Index: 39°   Visibility: 6mi
Dew Point: 32°   Wind: 9mph
Humidity: 75%   Direction: 360°N
Pressure: 30.36"   Gusts: NA
Location:  43.21°N, 27.9°E
Report Text: LBWN 231700Z 36004MPS 320V020 9999 SCT017 04/00 Q1028 NOSIG
Loading
Personal Weather Stations






























Interactive Weather Map New forecast layout! Learn more

10-Day Weather Forecast

Advertisements
Track Severe Weather on mobile